sensor_id;sensor_type;location;lat;lon;timestamp;temperature;humidity
66708;DHT22;53622;0.000;0.000;2023-11-18T00:00:33;20.80;53.20
66708;DHT22;53622;0.000;0.000;2023-11-18T00:03:02;20.80;53.20
66708;DHT22;53622;0.000;0.000;2023-11-18T00:05:31;20.80;53.30
66708;DHT22;53622;0.000;0.000;2023-11-18T00:08:01;20.80;53.20
66708;DHT22;53622;0.000;0.000;2023-11-18T00:10:30;20.80;53.20
66708;DHT22;53622;0.000;0.000;2023-11-18T00:12:59;20.70;53.00
66708;DHT22;53622;0.000;0.000;2023-11-18T00:15:29;20.70;53.10
66708;DHT22;53622;0.000;0.000;2023-11-18T00:17:57;20.70;53.10
66708;DHT22;53622;0.000;0.000;2023-11-18T00:20:27;20.70;53.10
66708;DHT22;53622;0.000;0.000;2023-11-18T00:22:58;20.70;53.10
66708;DHT22;53622;0.000;0.000;2023-11-18T00:25:29;20.70;53.10
66708;DHT22;53622;0.000;0.000;2023-11-18T00:27:59;20.70;53.10
66708;DHT22;53622;0.000;0.000;2023-11-18T00:30:27;20.60;53.10
66708;DHT22;53622;0.000;0.000;2023-11-18T00:32:56;20.60;53.10
66708;DHT22;53622;0.000;0.000;2023-11-18T00:35:25;20.60;53.00
66708;DHT22;53622;0.000;0.000;2023-11-18T00:37:54;20.60;53.10
66708;DHT22;53622;0.000;0.000;2023-11-18T00:40:23;20.60;53.10
66708;DHT22;53622;0.000;0.000;2023-11-18T00:42:53;20.60;53.00
66708;DHT22;53622;0.000;0.000;2023-11-18T00:45:21;20.60;53.00
66708;DHT22;53622;0.000;0.000;2023-11-18T00:47:50;20.60;53.00
66708;DHT22;53622;0.000;0.000;2023-11-18T00:50:19;20.60;53.00
66708;DHT22;53622;0.000;0.000;2023-11-18T00:52:48;20.60;53.00
66708;DHT22;53622;0.000;0.000;2023-11-18T00:55:17;20.60;52.90
66708;DHT22;53622;0.000;0.000;2023-11-18T00:57:46;20.60;53.00
66708;DHT22;53622;0.000;0.000;2023-11-18T01:00:16;20.50;53.00
66708;DHT22;53622;0.000;0.000;2023-11-18T01:02:49;20.50;53.00
66708;DHT22;53622;0.000;0.000;2023-11-18T01:05:19;20.50;53.10
66708;DHT22;53622;0.000;0.000;2023-11-18T01:07:47;20.50;52.90
66708;DHT22;53622;0.000;0.000;2023-11-18T01:10:17;20.50;52.90
66708;DHT22;53622;0.000;0.000;2023-11-18T01:12:46;20.50;52.90
66708;DHT22;53622;0.000;0.000;2023-11-18T01:15:16;20.50;52.90
66708;DHT22;53622;0.000;0.000;2023-11-18T01:17:45;20.50;52.90
66708;DHT22;53622;0.000;0.000;2023-11-18T01:20:14;20.50;52.90
66708;DHT22;53622;0.000;0.000;2023-11-18T01:22:49;20.50;52.90
66708;DHT22;53622;0.000;0.000;2023-11-18T01:25:17;20.50;52.80
66708;DHT22;53622;0.000;0.000;2023-11-18T01:27:46;20.40;53.40
66708;DHT22;53622;0.000;0.000;2023-11-18T01:30:17;20.40;52.80
66708;DHT22;53622;0.000;0.000;2023-11-18T01:32:46;20.40;52.90
66708;DHT22;53622;0.000;0.000;2023-11-18T01:35:16;20.40;52.90
66708;DHT22;53622;0.000;0.000;2023-11-18T01:37:45;20.40;52.90
66708;DHT22;53622;0.000;0.000;2023-11-18T01:40:16;20.40;52.90
66708;DHT22;53622;0.000;0.000;2023-11-18T01:42:45;20.40;52.80
66708;DHT22;53622;0.000;0.000;2023-11-18T01:45:14;20.40;52.70
66708;DHT22;53622;0.000;0.000;2023-11-18T01:47:46;20.40;52.80
66708;DHT22;53622;0.000;0.000;2023-11-18T01:50:16;20.40;52.80
66708;DHT22;53622;0.000;0.000;2023-11-18T01:52:46;20.40;52.80
66708;DHT22;53622;0.000;0.000;2023-11-18T01:55:16;20.40;52.80
66708;DHT22;53622;0.000;0.000;2023-11-18T01:57:45;20.40;52.80
66708;DHT22;53622;0.000;0.000;2023-11-18T02:00:14;20.40;52.80
66708;DHT22;53622;0.000;0.000;2023-11-18T02:02:47;20.40;52.70
66708;DHT22;53622;0.000;0.000;2023-11-18T02:05:16;20.40;52.70
66708;DHT22;53622;0.000;0.000;2023-11-18T02:07:46;20.30;52.70
66708;DHT22;53622;0.000;0.000;2023-11-18T02:10:15;20.40;52.80
66708;DHT22;53622;0.000;0.000;2023-11-18T02:12:50;20.30;52.70
66708;DHT22;53622;0.000;0.000;2023-11-18T02:15:24;20.30;52.80
66708;DHT22;53622;0.000;0.000;2023-11-18T02:17:57;20.30;52.80
66708;DHT22;53622;0.000;0.000;2023-11-18T02:20:26;20.30;52.80
66708;DHT22;53622;0.000;0.000;2023-11-18T02:22:57;20.30;52.80
66708;DHT22;53622;0.000;0.000;2023-11-18T02:25:27;20.30;52.70
66708;DHT22;53622;0.000;0.000;2023-11-18T02:27:58;20.30;52.80
66708;DHT22;53622;0.000;0.000;2023-11-18T02:30:27;20.30;52.80
66708;DHT22;53622;0.000;0.000;2023-11-18T02:33:02;20.30;52.90
66708;DHT22;53622;0.000;0.000;2023-11-18T02:35:37;20.20;52.80
66708;DHT22;53622;0.000;0.000;2023-11-18T02:38:07;20.30;52.80
66708;DHT22;53622;0.000;0.000;2023-11-18T02:40:39;20.20;52.80
66708;DHT22;53622;0.000;0.000;2023-11-18T02:43:12;20.20;52.70
66708;DHT22;53622;0.000;0.000;2023-11-18T02:45:41;20.20;52.70
66708;DHT22;53622;0.000;0.000;2023-11-18T02:48:10;20.20;52.80
66708;DHT22;53622;0.000;0.000;2023-11-18T02:50:39;20.20;52.60
66708;DHT22;53622;0.000;0.000;2023-11-18T02:53:10;20.20;52.70
66708;DHT22;53622;0.000;0.000;2023-11-18T02:55:38;20.20;52.80
66708;DHT22;53622;0.000;0.000;2023-11-18T02:58:08;20.20;52.80
66708;DHT22;53622;0.000;0.000;2023-11-18T03:00:38;20.20;52.60
66708;DHT22;53622;0.000;0.000;2023-11-18T03:03:07;20.20;52.70
66708;DHT22;53622;0.000;0.000;2023-11-18T03:05:36;20.20;52.70
66708;DHT22;53622;0.000;0.000;2023-11-18T03:08:05;20.20;52.70
66708;DHT22;53622;0.000;0.000;2023-11-18T03:10:34;20.20;52.70
66708;DHT22;53622;0.000;0.000;2023-11-18T03:13:03;20.10;52.70
66708;DHT22;53622;0.000;0.000;2023-11-18T03:15:32;20.20;52.60
66708;DHT22;53622;0.000;0.000;2023-11-18T03:18:02;20.10;52.60
66708;DHT22;53622;0.000;0.000;2023-11-18T03:20:33;20.20;52.60
66708;DHT22;53622;0.000;0.000;2023-11-18T03:23:03;20.20;52.70
66708;DHT22;53622;0.000;0.000;2023-11-18T03:25:35;20.10;52.70
66708;DHT22;53622;0.000;0.000;2023-11-18T03:28:05;20.10;52.70
66708;DHT22;53622;0.000;0.000;2023-11-18T03:30:35;20.10;52.60
66708;DHT22;53622;0.000;0.000;2023-11-18T03:33:05;20.10;52.60
66708;DHT22;53622;0.000;0.000;2023-11-18T03:35:38;20.10;52.60
66708;DHT22;53622;0.000;0.000;2023-11-18T03:38:07;20.10;52.60
66708;DHT22;53622;0.000;0.000;2023-11-18T03:40:36;20.10;52.70
66708;DHT22;53622;0.000;0.000;2023-11-18T03:43:04;20.10;52.60
66708;DHT22;53622;0.000;0.000;2023-11-18T03:45:33;20.10;52.60
66708;DHT22;53622;0.000;0.000;2023-11-18T03:48:02;20.10;52.50
66708;DHT22;53622;0.000;0.000;2023-11-18T03:50:32;20.10;52.50
66708;DHT22;53622;0.000;0.000;2023-11-18T03:53:01;20.00;52.50
66708;DHT22;53622;0.000;0.000;2023-11-18T03:55:30;20.00;52.60
66708;DHT22;53622;0.000;0.000;2023-11-18T03:57:59;20.00;52.50
66708;DHT22;53622;0.000;0.000;2023-11-18T04:00:28;20.00;52.50
66708;DHT22;53622;0.000;0.000;2023-11-18T04:02:59;20.00;52.50
66708;DHT22;53622;0.000;0.000;2023-11-18T04:05:27;20.00;52.50
66708;DHT22;53622;0.000;0.000;2023-11-18T04:07:57;20.00;52.50
66708;DHT22;53622;0.000;0.000;2023-11-18T04:10:27;20.00;52.50
66708;DHT22;53622;0.000;0.000;2023-11-18T04:12:55;20.00;52.60
66708;DHT22;53622;0.000;0.000;2023-11-18T04:15:24;20.00;52.50
66708;DHT22;53622;0.000;0.000;2023-11-18T04:17:54;20.00;52.60
66708;DHT22;53622;0.000;0.000;2023-11-18T04:20:23;20.00;52.50
66708;DHT22;53622;0.000;0.000;2023-11-18T04:22:52;20.00;52.50
66708;DHT22;53622;0.000;0.000;2023-11-18T04:25:23;20.00;52.50
66708;DHT22;53622;0.000;0.000;2023-11-18T04:27:52;20.00;52.60
66708;DHT22;53622;0.000;0.000;2023-11-18T04:30:21;19.90;52.60
66708;DHT22;53622;0.000;0.000;2023-11-18T04:32:50;19.90;52.60
66708;DHT22;53622;0.000;0.000;2023-11-18T04:35:19;19.90;52.60
66708;DHT22;53622;0.000;0.000;2023-11-18T04:37:49;19.90;52.60
66708;DHT22;53622;0.000;0.000;2023-11-18T04:40:18;19.90;52.60
66708;DHT22;53622;0.000;0.000;2023-11-18T04:42:48;19.90;52.60
66708;DHT22;53622;0.000;0.000;2023-11-18T04:45:17;19.90;52.50
66708;DHT22;53622;0.000;0.000;2023-11-18T04:47:45;19.90;52.50
66708;DHT22;53622;0.000;0.000;2023-11-18T04:50:14;19.90;52.40
66708;DHT22;53622;0.000;0.000;2023-11-18T04:52:43;19.90;52.50
66708;DHT22;53622;0.000;0.000;2023-11-18T04:55:12;19.90;52.60
66708;DHT22;53622;0.000;0.000;2023-11-18T04:57:41;19.90;52.50
66708;DHT22;53622;0.000;0.000;2023-11-18T05:00:13;19.80;52.40
66708;DHT22;53622;0.000;0.000;2023-11-18T05:02:45;19.80;52.50
66708;DHT22;53622;0.000;0.000;2023-11-18T05:05:16;19.80;52.50
66708;DHT22;53622;0.000;0.000;2023-11-18T05:07:45;19.80;52.50
66708;DHT22;53622;0.000;0.000;2023-11-18T05:10:14;19.80;52.40
66708;DHT22;53622;0.000;0.000;2023-11-18T05:12:42;19.80;52.50
66708;DHT22;53622;0.000;0.000;2023-11-18T05:15:13;19.80;52.60
66708;DHT22;53622;0.000;0.000;2023-11-18T05:17:41;19.80;52.50
66708;DHT22;53622;0.000;0.000;2023-11-18T05:20:10;19.80;52.50
66708;DHT22;53622;0.000;0.000;2023-11-18T05:22:40;19.80;52.40
66708;DHT22;53622;0.000;0.000;2023-11-18T05:25:09;19.80;52.30
66708;DHT22;53622;0.000;0.000;2023-11-18T05:27:38;19.80;52.30
66708;DHT22;53622;0.000;0.000;2023-11-18T05:30:09;19.80;52.30
66708;DHT22;53622;0.000;0.000;2023-11-18T05:32:39;19.80;52.30
66708;DHT22;53622;0.000;0.000;2023-11-18T05:35:08;19.80;52.30
66708;DHT22;53622;0.000;0.000;2023-11-18T05:37:39;19.80;52.50
66708;DHT22;53622;0.000;0.000;2023-11-18T05:40:09;19.70;52.40
66708;DHT22;53622;0.000;0.000;2023-11-18T05:42:43;19.70;52.40
66708;DHT22;53622;0.000;0.000;2023-11-18T05:45:13;19.80;52.50
66708;DHT22;53622;0.000;0.000;2023-11-18T05:47:56;19.70;52.40
66708;DHT22;53622;0.000;0.000;2023-11-18T05:50:25;19.70;52.30
66708;DHT22;53622;0.000;0.000;2023-11-18T05:52:54;19.70;52.30
66708;DHT22;53622;0.000;0.000;2023-11-18T05:55:23;19.70;52.40
66708;DHT22;53622;0.000;0.000;2023-11-18T05:57:52;19.70;52.40
66708;DHT22;53622;0.000;0.000;2023-11-18T06:00:20;19.70;52.50
66708;DHT22;53622;0.000;0.000;2023-11-18T06:03:03;19.70;52.40
66708;DHT22;53622;0.000;0.000;2023-11-18T06:05:32;19.70;52.40
66708;DHT22;53622;0.000;0.000;2023-11-18T06:08:03;19.70;52.40
66708;DHT22;53622;0.000;0.000;2023-11-18T06:10:32;19.70;52.40
66708;DHT22;53622;0.000;0.000;2023-11-18T06:13:01;19.60;52.30
66708;DHT22;53622;0.000;0.000;2023-11-18T06:15:31;19.80;52.40
66708;DHT22;53622;0.000;0.000;2023-11-18T06:18:04;20.10;52.20
66708;DHT22;53622;0.000;0.000;2023-11-18T06:20:34;20.40;51.20
66708;DHT22;53622;0.000;0.000;2023-11-18T06:23:03;20.60;50.60
66708;DHT22;53622;0.000;0.000;2023-11-18T06:25:32;20.90;50.10
66708;DHT22;53622;0.000;0.000;2023-11-18T06:28:03;21.00;49.70
66708;DHT22;53622;0.000;0.000;2023-11-18T06:30:35;21.10;49.40
66708;DHT22;53622;0.000;0.000;2023-11-18T06:33:05;21.20;49.10
66708;DHT22;53622;0.000;0.000;2023-11-18T06:35:34;21.40;48.80
66708;DHT22;53622;0.000;0.000;2023-11-18T06:38:02;21.40;50.00
66708;DHT22;53622;0.000;0.000;2023-11-18T06:40:31;21.30;51.20
66708;DHT22;53622;0.000;0.000;2023-11-18T06:43:00;21.20;51.20
66708;DHT22;53622;0.000;0.000;2023-11-18T06:45:30;21.10;50.80
66708;DHT22;53622;0.000;0.000;2023-11-18T06:47:59;21.00;50.80
66708;DHT22;53622;0.000;0.000;2023-11-18T06:50:29;21.00;51.00
66708;DHT22;53622;0.000;0.000;2023-11-18T06:52:59;20.90;51.10
66708;DHT22;53622;0.000;0.000;2023-11-18T06:55:27;20.90;51.20
66708;DHT22;53622;0.000;0.000;2023-11-18T06:57:57;20.90;51.20
66708;DHT22;53622;0.000;0.000;2023-11-18T07:00:25;20.90;51.60
66708;DHT22;53622;0.000;0.000;2023-11-18T07:02:55;20.90;52.10
66708;DHT22;53622;0.000;0.000;2023-11-18T07:05:25;20.90;52.50
66708;DHT22;53622;0.000;0.000;2023-11-18T07:07:55;20.90;51.90
66708;DHT22;53622;0.000;0.000;2023-11-18T07:10:24;20.90;52.60
66708;DHT22;53622;0.000;0.000;2023-11-18T07:12:55;20.90;51.50
66708;DHT22;53622;0.000;0.000;2023-11-18T07:15:29;20.90;51.90
66708;DHT22;53622;0.000;0.000;2023-11-18T07:17:58;21.00;53.10
66708;DHT22;53622;0.000;0.000;2023-11-18T07:20:26;21.10;53.30
66708;DHT22;53622;0.000;0.000;2023-11-18T07:22:56;21.10;53.60
66708;DHT22;53622;0.000;0.000;2023-11-18T07:25:25;21.10;53.40
66708;DHT22;53622;0.000;0.000;2023-11-18T07:27:54;21.20;53.60
66708;DHT22;53622;0.000;0.000;2023-11-18T07:30:23;21.20;53.50
66708;DHT22;53622;0.000;0.000;2023-11-18T07:32:52;21.20;53.70
66708;DHT22;53622;0.000;0.000;2023-11-18T07:35:21;21.20;53.60
66708;DHT22;53622;0.000;0.000;2023-11-18T07:37:50;21.30;53.80
66708;DHT22;53622;0.000;0.000;2023-11-18T07:40:20;21.30;53.80
66708;DHT22;53622;0.000;0.000;2023-11-18T07:42:52;21.30;52.80
66708;DHT22;53622;0.000;0.000;2023-11-18T07:45:21;21.30;53.30
66708;DHT22;53622;0.000;0.000;2023-11-18T07:47:50;21.40;53.60
66708;DHT22;53622;0.000;0.000;2023-11-18T07:50:19;21.40;53.70
66708;DHT22;53622;0.000;0.000;2023-11-18T07:52:48;21.40;53.80
66708;DHT22;53622;0.000;0.000;2023-11-18T07:55:18;21.40;53.90
66708;DHT22;53622;0.000;0.000;2023-11-18T07:57:48;21.40;52.70
66708;DHT22;53622;0.000;0.000;2023-11-18T08:00:16;21.40;52.00
66708;DHT22;53622;0.000;0.000;2023-11-18T08:02:45;21.40;51.60
66708;DHT22;53622;0.000;0.000;2023-11-18T08:05:14;21.50;51.90
66708;DHT22;53622;0.000;0.000;2023-11-18T08:07:43;21.40;52.20
66708;DHT22;53622;0.000;0.000;2023-11-18T08:10:13;21.40;50.40
66708;DHT22;53622;0.000;0.000;2023-11-18T08:12:48;21.30;49.00
66708;DHT22;53622;0.000;0.000;2023-11-18T08:15:18;21.20;49.70
66708;DHT22;53622;0.000;0.000;2023-11-18T08:17:47;21.20;51.60
66708;DHT22;53622;0.000;0.000;2023-11-18T08:20:16;21.30;52.50
66708;DHT22;53622;0.000;0.000;2023-11-18T08:22:44;21.30;52.50
66708;DHT22;53622;0.000;0.000;2023-11-18T08:25:13;21.30;52.30
66708;DHT22;53622;0.000;0.000;2023-11-18T08:27:42;21.40;51.40
66708;DHT22;53622;0.000;0.000;2023-11-18T08:30:14;21.40;51.90
66708;DHT22;53622;0.000;0.000;2023-11-18T08:32:45;21.40;51.80
66708;DHT22;53622;0.000;0.000;2023-11-18T08:35:15;21.40;50.60
66708;DHT22;53622;0.000;0.000;2023-11-18T08:37:45;21.30;51.10
66708;DHT22;53622;0.000;0.000;2023-11-18T08:40:15;21.20;50.90
66708;DHT22;53622;0.000;0.000;2023-11-18T08:42:46;21.20;50.80
66708;DHT22;53622;0.000;0.000;2023-11-18T08:45:19;21.10;50.10
66708;DHT22;53622;0.000;0.000;2023-11-18T08:47:49;21.00;49.70
66708;DHT22;53622;0.000;0.000;2023-11-18T08:50:21;21.00;49.70
66708;DHT22;53622;0.000;0.000;2023-11-18T08:52:52;21.00;50.60
66708;DHT22;53622;0.000;0.000;2023-11-18T08:55:27;20.90;50.30
66708;DHT22;53622;0.000;0.000;2023-11-18T08:58:11;20.90;50.60
66708;DHT22;53622;0.000;0.000;2023-11-18T09:00:52;20.90;50.80
66708;DHT22;53622;0.000;0.000;2023-11-18T09:03:23;20.90;50.90
66708;DHT22;53622;0.000;0.000;2023-11-18T09:05:57;20.90;51.00
66708;DHT22;53622;0.000;0.000;2023-11-18T09:08:26;20.80;51.00
66708;DHT22;53622;0.000;0.000;2023-11-18T09:10:57;20.80;51.20
66708;DHT22;53622;0.000;0.000;2023-11-18T09:13:26;20.80;51.10
66708;DHT22;53622;0.000;0.000;2023-11-18T09:15:58;20.80;51.20
66708;DHT22;53622;0.000;0.000;2023-11-18T09:18:28;20.70;51.20
66708;DHT22;53622;0.000;0.000;2023-11-18T09:20:58;20.70;51.20
66708;DHT22;53622;0.000;0.000;2023-11-18T09:23:29;20.70;51.20
66708;DHT22;53622;0.000;0.000;2023-11-18T09:25:59;20.70;51.30
66708;DHT22;53622;0.000;0.000;2023-11-18T09:28:28;20.70;51.40
66708;DHT22;53622;0.000;0.000;2023-11-18T09:30:58;20.60;51.30
66708;DHT22;53622;0.000;0.000;2023-11-18T09:33:31;20.60;51.30
66708;DHT22;53622;0.000;0.000;2023-11-18T09:36:02;20.60;51.50
66708;DHT22;53622;0.000;0.000;2023-11-18T09:38:32;20.60;51.40
66708;DHT22;53622;0.000;0.000;2023-11-18T09:41:04;20.60;51.30
66708;DHT22;53622;0.000;0.000;2023-11-18T09:43:35;20.60;51.90
66708;DHT22;53622;0.000;0.000;2023-11-18T09:46:12;20.60;51.30
66708;DHT22;53622;0.000;0.000;2023-11-18T09:48:43;20.60;51.40
66708;DHT22;53622;0.000;0.000;2023-11-18T09:51:17;20.60;51.30
66708;DHT22;53622;0.000;0.000;2023-11-18T09:53:50;20.60;51.40
66708;DHT22;53622;0.000;0.000;2023-11-18T09:56:30;20.60;51.50
66708;DHT22;53622;0.000;0.000;2023-11-18T09:59:10;20.50;50.50
66708;DHT22;53622;0.000;0.000;2023-11-18T10:01:50;20.40;50.20
66708;DHT22;53622;0.000;0.000;2023-11-18T10:04:21;20.40;50.50
66708;DHT22;53622;0.000;0.000;2023-11-18T10:06:55;20.40;51.10
66708;DHT22;53622;0.000;0.000;2023-11-18T10:09:24;20.40;51.40
66708;DHT22;53622;0.000;0.000;2023-11-18T10:11:56;20.70;51.40
66708;DHT22;53622;0.000;0.000;2023-11-18T10:14:33;20.70;51.10
66708;DHT22;53622;0.000;0.000;2023-11-18T10:17:06;20.70;51.00
66708;DHT22;53622;0.000;0.000;2023-11-18T10:19:52;20.80;51.30
66708;DHT22;53622;0.000;0.000;2023-11-18T10:22:24;20.80;51.30
66708;DHT22;53622;0.000;0.000;2023-11-18T10:24:55;20.70;51.60
66708;DHT22;53622;0.000;0.000;2023-11-18T10:27:26;20.70;51.60
66708;DHT22;53622;0.000;0.000;2023-11-18T10:29:55;20.80;51.60
66708;DHT22;53622;0.000;0.000;2023-11-18T10:32:26;20.80;51.60
66708;DHT22;53622;0.000;0.000;2023-11-18T10:34:56;20.80;51.60
66708;DHT22;53622;0.000;0.000;2023-11-18T10:37:25;20.80;51.60
66708;DHT22;53622;0.000;0.000;2023-11-18T10:40:04;20.80;51.90
66708;DHT22;53622;0.000;0.000;2023-11-18T10:42:33;20.80;51.90
66708;DHT22;53622;0.000;0.000;2023-11-18T10:45:02;20.80;52.00
66708;DHT22;53622;0.000;0.000;2023-11-18T10:47:34;20.80;52.00
66708;DHT22;53622;0.000;0.000;2023-11-18T10:50:04;20.80;52.10
66708;DHT22;53622;0.000;0.000;2023-11-18T10:52:38;20.80;51.90
66708;DHT22;53622;0.000;0.000;2023-11-18T10:55:09;20.80;52.10
66708;DHT22;53622;0.000;0.000;2023-11-18T10:57:40;20.80;52.10
66708;DHT22;53622;0.000;0.000;2023-11-18T11:00:11;20.80;52.40
66708;DHT22;53622;0.000;0.000;2023-11-18T11:02:48;20.80;52.30
66708;DHT22;53622;0.000;0.000;2023-11-18T11:05:28;20.80;52.20
66708;DHT22;53622;0.000;0.000;2023-11-18T11:08:01;20.80;51.80
66708;DHT22;53622;0.000;0.000;2023-11-18T11:10:32;20.80;51.70
66708;DHT22;53622;0.000;0.000;2023-11-18T11:13:06;20.80;51.70
66708;DHT22;53622;0.000;0.000;2023-11-18T11:15:40;20.80;51.90
66708;DHT22;53622;0.000;0.000;2023-11-18T11:18:28;20.80;51.90
66708;DHT22;53622;0.000;0.000;2023-11-18T11:21:07;20.70;51.60
66708;DHT22;53622;0.000;0.000;2023-11-18T11:23:48;20.70;51.60
66708;DHT22;53622;0.000;0.000;2023-11-18T11:26:33;20.80;51.60
66708;DHT22;53622;0.000;0.000;2023-11-18T11:29:14;20.80;51.80
66708;DHT22;53622;0.000;0.000;2023-11-18T11:31:54;20.80;52.10
66708;DHT22;53622;0.000;0.000;2023-11-18T11:34:29;20.80;52.40
66708;DHT22;53622;0.000;0.000;2023-11-18T11:36:59;20.80;52.40
66708;DHT22;53622;0.000;0.000;2023-11-18T11:39:29;20.80;52.50
66708;DHT22;53622;0.000;0.000;2023-11-18T11:42:00;20.90;52.60
66708;DHT22;53622;0.000;0.000;2023-11-18T11:44:30;20.90;52.50
66708;DHT22;53622;0.000;0.000;2023-11-18T11:46:59;20.90;52.70
66708;DHT22;53622;0.000;0.000;2023-11-18T11:49:39;20.90;52.60
66708;DHT22;53622;0.000;0.000;2023-11-18T11:52:18;20.90;52.60
66708;DHT22;53622;0.000;0.000;2023-11-18T11:54:54;21.00;52.50
66708;DHT22;53622;0.000;0.000;2023-11-18T11:57:25;21.00;52.70
66708;DHT22;53622;0.000;0.000;2023-11-18T11:59:59;21.00;52.70
66708;DHT22;53622;0.000;0.000;2023-11-18T12:02:48;21.00;52.70
66708;DHT22;53622;0.000;0.000;2023-11-18T12:05:19;21.00;52.70
66708;DHT22;53622;0.000;0.000;2023-11-18T12:07:53;21.00;52.90
66708;DHT22;53622;0.000;0.000;2023-11-18T12:10:26;21.00;53.00
66708;DHT22;53622;0.000;0.000;2023-11-18T12:13:08;21.00;52.90
66708;DHT22;53622;0.000;0.000;2023-11-18T12:15:51;21.10;53.20
66708;DHT22;53622;0.000;0.000;2023-11-18T12:18:25;21.10;53.20
66708;DHT22;53622;0.000;0.000;2023-11-18T12:20:55;21.00;53.40
66708;DHT22;53622;0.000;0.000;2023-11-18T12:23:29;21.00;53.40
66708;DHT22;53622;0.000;0.000;2023-11-18T12:26:02;21.00;53.50
66708;DHT22;53622;0.000;0.000;2023-11-18T12:28:52;21.10;53.80
66708;DHT22;53622;0.000;0.000;2023-11-18T12:31:39;21.10;54.10
66708;DHT22;53622;0.000;0.000;2023-11-18T12:34:07;21.10;54.60
66708;DHT22;53622;0.000;0.000;2023-11-18T12:36:58;21.10;54.30
66708;DHT22;53622;0.000;0.000;2023-11-18T12:40:15;21.20;54.70
66708;DHT22;53622;0.000;0.000;2023-11-18T12:43:01;21.20;55.10
66708;DHT22;53622;0.000;0.000;2023-11-18T12:46:02;21.20;55.20
66708;DHT22;53622;0.000;0.000;2023-11-18T12:48:44;21.20;55.30
66708;DHT22;53622;0.000;0.000;2023-11-18T12:51:14;21.30;55.30
66708;DHT22;53622;0.000;0.000;2023-11-18T12:53:49;21.30;55.20
66708;DHT22;53622;0.000;0.000;2023-11-18T12:56:21;21.30;55.20
66708;DHT22;53622;0.000;0.000;2023-11-18T12:58:51;21.30;55.10
66708;DHT22;53622;0.000;0.000;2023-11-18T13:01:22;21.40;55.10
66708;DHT22;53622;0.000;0.000;2023-11-18T13:03:51;21.40;55.10
66708;DHT22;53622;0.000;0.000;2023-11-18T13:06:21;21.40;54.90
66708;DHT22;53622;0.000;0.000;2023-11-18T13:08:57;21.40;54.90
66708;DHT22;53622;0.000;0.000;2023-11-18T13:11:26;21.40;54.80
66708;DHT22;53622;0.000;0.000;2023-11-18T13:13:55;21.40;54.70
66708;DHT22;53622;0.000;0.000;2023-11-18T13:16:24;21.40;54.80
66708;DHT22;53622;0.000;0.000;2023-11-18T13:18:53;21.50;55.10
66708;DHT22;53622;0.000;0.000;2023-11-18T13:21:23;21.40;54.50
66708;DHT22;53622;0.000;0.000;2023-11-18T13:23:58;21.40;54.20
66708;DHT22;53622;0.000;0.000;2023-11-18T13:26:27;21.50;54.50
66708;DHT22;53622;0.000;0.000;2023-11-18T13:28:55;21.50;54.30
66708;DHT22;53622;0.000;0.000;2023-11-18T13:31:24;21.40;54.20
66708;DHT22;53622;0.000;0.000;2023-11-18T13:33:53;21.40;54.30
66708;DHT22;53622;0.000;0.000;2023-11-18T13:36:22;21.40;54.20
66708;DHT22;53622;0.000;0.000;2023-11-18T13:38:52;21.40;54.10
66708;DHT22;53622;0.000;0.000;2023-11-18T13:41:31;21.40;54.10
66708;DHT22;53622;0.000;0.000;2023-11-18T13:44:00;21.40;54.20
66708;DHT22;53622;0.000;0.000;2023-11-18T13:46:30;21.40;54.10
66708;DHT22;53622;0.000;0.000;2023-11-18T13:48:59;21.40;53.90
66708;DHT22;53622;0.000;0.000;2023-11-18T13:51:27;21.30;54.00
66708;DHT22;53622;0.000;0.000;2023-11-18T13:53:57;21.30;53.90
66708;DHT22;53622;0.000;0.000;2023-11-18T13:56:27;21.30;53.40
66708;DHT22;53622;0.000;0.000;2023-11-18T13:58:59;21.30;53.40
66708;DHT22;53622;0.000;0.000;2023-11-18T14:01:28;21.30;53.50
66708;DHT22;53622;0.000;0.000;2023-11-18T14:03:56;21.30;53.60
66708;DHT22;53622;0.000;0.000;2023-11-18T14:06:30;21.30;53.60
66708;DHT22;53622;0.000;0.000;2023-11-18T14:08:59;21.30;53.70
66708;DHT22;53622;0.000;0.000;2023-11-18T14:11:28;21.30;53.90
66708;DHT22;53622;0.000;0.000;2023-11-18T14:13:56;21.20;54.00
66708;DHT22;53622;0.000;0.000;2023-11-18T14:16:27;21.20;53.00
66708;DHT22;53622;0.000;0.000;2023-11-18T14:18:56;21.10;53.10
66708;DHT22;53622;0.000;0.000;2023-11-18T14:21:24;21.10;53.00
66708;DHT22;53622;0.000;0.000;2023-11-18T14:23:54;21.10;53.10
66708;DHT22;53622;0.000;0.000;2023-11-18T14:26:27;21.10;53.40
66708;DHT22;53622;0.000;0.000;2023-11-18T14:28:56;21.10;53.50
66708;DHT22;53622;0.000;0.000;2023-11-18T14:31:27;21.20;53.40
66708;DHT22;53622;0.000;0.000;2023-11-18T14:33:57;21.50;52.90
66708;DHT22;53622;0.000;0.000;2023-11-18T14:36:26;21.80;52.30
66708;DHT22;53622;0.000;0.000;2023-11-18T14:38:56;21.90;52.20
66708;DHT22;53622;0.000;0.000;2023-11-18T14:41:25;22.00;52.00
66708;DHT22;53622;0.000;0.000;2023-11-18T14:43:57;22.10;52.00
66708;DHT22;53622;0.000;0.000;2023-11-18T14:46:29;22.10;52.80
66708;DHT22;53622;0.000;0.000;2023-11-18T14:48:59;22.00;53.50
66708;DHT22;53622;0.000;0.000;2023-11-18T14:51:28;21.90;53.30
66708;DHT22;53622;0.000;0.000;2023-11-18T14:53:57;21.90;53.30
66708;DHT22;53622;0.000;0.000;2023-11-18T14:56:28;21.90;53.80
66708;DHT22;53622;0.000;0.000;2023-11-18T14:58:57;21.90;53.80
66708;DHT22;53622;0.000;0.000;2023-11-18T15:01:27;21.80;53.70
66708;DHT22;53622;0.000;0.000;2023-11-18T15:03:58;21.80;53.80
66708;DHT22;53622;0.000;0.000;2023-11-18T15:06:27;21.90;53.80
66708;DHT22;53622;0.000;0.000;2023-11-18T15:08:56;21.90;53.70
66708;DHT22;53622;0.000;0.000;2023-11-18T15:11:25;21.90;53.70
66708;DHT22;53622;0.000;0.000;2023-11-18T15:13:54;21.90;53.50
66708;DHT22;53622;0.000;0.000;2023-11-18T15:16:26;21.90;53.70
66708;DHT22;53622;0.000;0.000;2023-11-18T15:19:02;21.90;53.60
66708;DHT22;53622;0.000;0.000;2023-11-18T15:21:31;22.00;53.30
66708;DHT22;53622;0.000;0.000;2023-11-18T15:24:00;22.00;53.40
66708;DHT22;53622;0.000;0.000;2023-11-18T15:26:31;22.00;53.50
66708;DHT22;53622;0.000;0.000;2023-11-18T15:29:00;22.00;53.40
66708;DHT22;53622;0.000;0.000;2023-11-18T15:31:30;22.00;53.30
66708;DHT22;53622;0.000;0.000;2023-11-18T15:34:02;22.00;53.40
66708;DHT22;53622;0.000;0.000;2023-11-18T15:36:30;22.00;53.40
66708;DHT22;53622;0.000;0.000;2023-11-18T15:38:59;22.00;53.40
66708;DHT22;53622;0.000;0.000;2023-11-18T15:41:30;22.10;53.20
66708;DHT22;53622;0.000;0.000;2023-11-18T15:44:00;22.10;53.30
66708;DHT22;53622;0.000;0.000;2023-11-18T15:46:30;22.10;53.10
66708;DHT22;53622;0.000;0.000;2023-11-18T15:49:04;22.10;52.80
66708;DHT22;53622;0.000;0.000;2023-11-18T15:51:33;22.10;53.30
66708;DHT22;53622;0.000;0.000;2023-11-18T15:54:02;22.10;53.10
66708;DHT22;53622;0.000;0.000;2023-11-18T15:56:30;22.10;53.40
66708;DHT22;53622;0.000;0.000;2023-11-18T15:59:01;22.10;53.10
66708;DHT22;53622;0.000;0.000;2023-11-18T16:01:30;22.20;53.30
66708;DHT22;53622;0.000;0.000;2023-11-18T16:03:59;22.20;53.20
66708;DHT22;53622;0.000;0.000;2023-11-18T16:06:29;22.20;53.20
66708;DHT22;53622;0.000;0.000;2023-11-18T16:08:59;22.20;53.20